sensor_id;sensor_type;location;lat;lon;timestamp;P1;durP1;ratioP1;P2;durP2;ratioP2
75766;SDS011;64378;55.596;13.014;2022-12-20T00:01:00;9.85;;;4.45;;
75766;SDS011;64378;55.596;13.014;2022-12-20T00:03:25;9.60;;;4.43;;
75766;SDS011;64378;55.596;13.014;2022-12-20T00:05:50;9.00;;;4.53;;
75766;SDS011;64378;55.596;13.014;2022-12-20T00:08:16;9.03;;;4.33;;
75766;SDS011;64378;55.596;13.014;2022-12-20T00:10:42;10.10;;;4.87;;
75766;SDS011;64378;55.596;13.014;2022-12-20T00:13:09;8.87;;;4.63;;
75766;SDS011;64378;55.596;13.014;2022-12-20T00:15:36;9.37;;;4.90;;
75766;SDS011;64378;55.596;13.014;2022-12-20T00:18:01;9.55;;;4.97;;
75766;SDS011;64378;55.596;13.014;2022-12-20T00:20:27;9.52;;;5.07;;
75766;SDS011;64378;55.596;13.014;2022-12-20T00:22:53;9.45;;;5.30;;
75766;SDS011;64378;55.596;13.014;2022-12-20T00:25:18;9.40;;;5.20;;
75766;SDS011;64378;55.596;13.014;2022-12-20T00:27:45;9.75;;;5.15;;
75766;SDS011;64378;55.596;13.014;2022-12-20T00:30:11;9.30;;;5.20;;
75766;SDS011;64378;55.596;13.014;2022-12-20T00:32:36;9.83;;;5.27;;
75766;SDS011;64378;55.596;13.014;2022-12-20T00:35:02;9.13;;;4.97;;
75766;SDS011;64378;55.596;13.014;2022-12-20T00:37:28;10.60;;;5.65;;
75766;SDS011;64378;55.596;13.014;2022-12-20T00:39:53;9.93;;;5.03;;
75766;SDS011;64378;55.596;13.014;2022-12-20T00:42:19;10.53;;;5.80;;
75766;SDS011;64378;55.596;13.014;2022-12-20T00:44:44;10.10;;;5.43;;
75766;SDS011;64378;55.596;13.014;2022-12-20T00:47:09;9.60;;;4.87;;
75766;SDS011;64378;55.596;13.014;2022-12-20T00:49:35;10.97;;;5.40;;
75766;SDS011;64378;55.596;13.014;2022-12-20T00:52:00;11.47;;;6.00;;
75766;SDS011;64378;55.596;13.014;2022-12-20T00:54:25;10.73;;;5.07;;
75766;SDS011;64378;55.596;13.014;2022-12-20T00:56:51;10.88;;;5.53;;
75766;SDS011;64378;55.596;13.014;2022-12-20T00:59:16;9.52;;;5.43;;
75766;SDS011;64378;55.596;13.014;2022-12-20T01:01:41;9.57;;;4.90;;
75766;SDS011;64378;55.596;13.014;2022-12-20T01:04:07;10.32;;;5.80;;
75766;SDS011;64378;55.596;13.014;2022-12-20T01:06:33;11.80;;;5.10;;
75766;SDS011;64378;55.596;13.014;2022-12-20T01:08:59;10.13;;;5.30;;
75766;SDS011;64378;55.596;13.014;2022-12-20T01:11:26;10.17;;;5.00;;
75766;SDS011;64378;55.596;13.014;2022-12-20T01:13:54;9.52;;;4.97;;
75766;SDS011;64378;55.596;13.014;2022-12-20T01:16:23;9.03;;;4.97;;
75766;SDS011;64378;55.596;13.014;2022-12-20T01:18:49;10.67;;;4.93;;
75766;SDS011;64378;55.596;13.014;2022-12-20T01:21:15;9.75;;;5.60;;
75766;SDS011;64378;55.596;13.014;2022-12-20T01:23:42;10.20;;;5.43;;
75766;SDS011;64378;55.596;13.014;2022-12-20T01:26:09;10.47;;;5.30;;
75766;SDS011;64378;55.596;13.014;2022-12-20T01:28:37;9.88;;;5.43;;
75766;SDS011;64378;55.596;13.014;2022-12-20T01:31:05;10.38;;;5.35;;
75766;SDS011;64378;55.596;13.014;2022-12-20T01:33:34;10.27;;;5.45;;
75766;SDS011;64378;55.596;13.014;2022-12-20T01:36:02;9.25;;;5.07;;
75766;SDS011;64378;55.596;13.014;2022-12-20T01:38:32;11.20;;;5.67;;
75766;SDS011;64378;55.596;13.014;2022-12-20T01:40:59;10.10;;;5.35;;
75766;SDS011;64378;55.596;13.014;2022-12-20T01:43:25;11.03;;;5.47;;
75766;SDS011;64378;55.596;13.014;2022-12-20T01:46:09;10.02;;;5.70;;
75766;SDS011;64378;55.596;13.014;2022-12-20T01:48:35;12.93;;;5.97;;
75766;SDS011;64378;55.596;13.014;2022-12-20T01:51:00;9.97;;;5.63;;
75766;SDS011;64378;55.596;13.014;2022-12-20T01:53:26;10.27;;;5.80;;
75766;SDS011;64378;55.596;13.014;2022-12-20T01:55:51;11.10;;;5.63;;
75766;SDS011;64378;55.596;13.014;2022-12-20T01:58:19;10.90;;;5.97;;
75766;SDS011;64378;55.596;13.014;2022-12-20T02:00:46;10.10;;;5.60;;
75766;SDS011;64378;55.596;13.014;2022-12-20T02:03:12;10.07;;;5.07;;
75766;SDS011;64378;55.596;13.014;2022-12-20T02:05:40;10.57;;;5.38;;
75766;SDS011;64378;55.596;13.014;2022-12-20T02:08:09;12.40;;;6.15;;
75766;SDS011;64378;55.596;13.014;2022-12-20T02:13:18;9.80;;;5.32;;
75766;SDS011;64378;55.596;13.014;2022-12-20T02:16:05;9.30;;;5.60;;
75766;SDS011;64378;55.596;13.014;2022-12-20T02:18:36;11.40;;;5.83;;
75766;SDS011;64378;55.596;13.014;2022-12-20T02:21:15;9.82;;;5.70;;
75766;SDS011;64378;55.596;13.014;2022-12-20T02:26:57;10.45;;;5.85;;
75766;SDS011;64378;55.596;13.014;2022-12-20T02:29:36;11.23;;;5.70;;
75766;SDS011;64378;55.596;13.014;2022-12-20T02:32:24;11.37;;;5.40;;
75766;SDS011;64378;55.596;13.014;2022-12-20T02:34:52;10.30;;;5.10;;
75766;SDS011;64378;55.596;13.014;2022-12-20T02:37:18;9.93;;;5.43;;
75766;SDS011;64378;55.596;13.014;2022-12-20T02:39:44;9.10;;;5.47;;
75766;SDS011;64378;55.596;13.014;2022-12-20T02:42:11;9.67;;;5.00;;
75766;SDS011;64378;55.596;13.014;2022-12-20T02:44:47;9.30;;;5.00;;
75766;SDS011;64378;55.596;13.014;2022-12-20T02:47:37;9.93;;;5.20;;
75766;SDS011;64378;55.596;13.014;2022-12-20T02:50:06;9.60;;;5.18;;
75766;SDS011;64378;55.596;13.014;2022-12-20T02:52:33;11.30;;;5.25;;
75766;SDS011;64378;55.596;13.014;2022-12-20T02:55:00;9.18;;;5.13;;
75766;SDS011;64378;55.596;13.014;2022-12-20T03:00:12;9.88;;;4.50;;
75766;SDS011;64378;55.596;13.014;2022-12-20T03:02:43;9.57;;;4.93;;
75766;SDS011;64378;55.596;13.014;2022-12-20T03:05:29;9.25;;;4.80;;
75766;SDS011;64378;55.596;13.014;2022-12-20T03:07:57;9.43;;;4.78;;
75766;SDS011;64378;55.596;13.014;2022-12-20T03:10:23;9.60;;;4.90;;
75766;SDS011;64378;55.596;13.014;2022-12-20T03:12:48;10.88;;;5.13;;
75766;SDS011;64378;55.596;13.014;2022-12-20T03:15:14;9.18;;;4.82;;
75766;SDS011;64378;55.596;13.014;2022-12-20T03:17:39;8.50;;;4.77;;
75766;SDS011;64378;55.596;13.014;2022-12-20T03:20:05;8.43;;;5.00;;
75766;SDS011;64378;55.596;13.014;2022-12-20T03:22:31;9.10;;;4.68;;
75766;SDS011;64378;55.596;13.014;2022-12-20T03:24:58;9.17;;;4.70;;
75766;SDS011;64378;55.596;13.014;2022-12-20T03:27:24;9.47;;;5.07;;
75766;SDS011;64378;55.596;13.014;2022-12-20T03:29:51;8.57;;;4.68;;
75766;SDS011;64378;55.596;13.014;2022-12-20T03:32:16;8.93;;;4.70;;
75766;SDS011;64378;55.596;13.014;2022-12-20T03:34:41;10.83;;;5.00;;
75766;SDS011;64378;55.596;13.014;2022-12-20T03:37:07;11.80;;;5.53;;
75766;SDS011;64378;55.596;13.014;2022-12-20T03:39:32;9.30;;;5.07;;
75766;SDS011;64378;55.596;13.014;2022-12-20T03:41:57;9.70;;;4.93;;
75766;SDS011;64378;55.596;13.014;2022-12-20T03:44:23;10.10;;;5.37;;
75766;SDS011;64378;55.596;13.014;2022-12-20T03:46:49;10.18;;;5.35;;
75766;SDS011;64378;55.596;13.014;2022-12-20T03:49:14;9.57;;;5.50;;
75766;SDS011;64378;55.596;13.014;2022-12-20T03:51:40;10.50;;;5.60;;
75766;SDS011;64378;55.596;13.014;2022-12-20T03:54:05;9.83;;;5.37;;
75766;SDS011;64378;55.596;13.014;2022-12-20T03:56:31;10.10;;;5.55;;
75766;SDS011;64378;55.596;13.014;2022-12-20T03:58:56;9.10;;;5.13;;
75766;SDS011;64378;55.596;13.014;2022-12-20T04:01:23;10.60;;;5.47;;
75766;SDS011;64378;55.596;13.014;2022-12-20T04:03:50;10.35;;;5.70;;
75766;SDS011;64378;55.596;13.014;2022-12-20T04:06:16;9.37;;;5.20;;
75766;SDS011;64378;55.596;13.014;2022-12-20T04:08:42;10.53;;;5.67;;
75766;SDS011;64378;55.596;13.014;2022-12-20T04:11:08;10.18;;;5.50;;
75766;SDS011;64378;55.596;13.014;2022-12-20T04:16:13;10.50;;;5.90;;
75766;SDS011;64378;55.596;13.014;2022-12-20T04:18:41;10.80;;;5.50;;
75766;SDS011;64378;55.596;13.014;2022-12-20T04:21:06;11.15;;;6.10;;
75766;SDS011;64378;55.596;13.014;2022-12-20T04:23:33;10.67;;;5.93;;
75766;SDS011;64378;55.596;13.014;2022-12-20T04:26:02;9.82;;;5.68;;
75766;SDS011;64378;55.596;13.014;2022-12-20T04:28:29;9.52;;;5.70;;
75766;SDS011;64378;55.596;13.014;2022-12-20T04:30:55;9.93;;;5.50;;
75766;SDS011;64378;55.596;13.014;2022-12-20T04:33:21;10.97;;;5.60;;
75766;SDS011;64378;55.596;13.014;2022-12-20T04:35:47;10.10;;;5.50;;
75766;SDS011;64378;55.596;13.014;2022-12-20T04:38:12;10.63;;;5.75;;
75766;SDS011;64378;55.596;13.014;2022-12-20T04:40:38;10.07;;;5.50;;
75766;SDS011;64378;55.596;13.014;2022-12-20T04:43:03;9.57;;;5.43;;
75766;SDS011;64378;55.596;13.014;2022-12-20T04:45:28;9.50;;;5.40;;
75766;SDS011;64378;55.596;13.014;2022-12-20T04:47:54;10.60;;;5.50;;
75766;SDS011;64378;55.596;13.014;2022-12-20T04:50:19;9.90;;;5.57;;
75766;SDS011;64378;55.596;13.014;2022-12-20T04:52:44;12.40;;;5.93;;
75766;SDS011;64378;55.596;13.014;2022-12-20T04:55:28;10.73;;;5.50;;
75766;SDS011;64378;55.596;13.014;2022-12-20T04:57:54;10.25;;;5.20;;
75766;SDS011;64378;55.596;13.014;2022-12-20T05:00:20;10.50;;;5.18;;
75766;SDS011;64378;55.596;13.014;2022-12-20T05:02:46;9.77;;;5.53;;
75766;SDS011;64378;55.596;13.014;2022-12-20T05:05:11;9.43;;;5.00;;
75766;SDS011;64378;55.596;13.014;2022-12-20T05:07:38;9.82;;;5.75;;
75766;SDS011;64378;55.596;13.014;2022-12-20T05:10:03;9.83;;;5.60;;
75766;SDS011;64378;55.596;13.014;2022-12-20T05:12:29;10.38;;;5.30;;
75766;SDS011;64378;55.596;13.014;2022-12-20T05:14:54;9.87;;;5.20;;
75766;SDS011;64378;55.596;13.014;2022-12-20T05:17:20;11.73;;;5.70;;
75766;SDS011;64378;55.596;13.014;2022-12-20T05:19:45;10.50;;;5.33;;
75766;SDS011;64378;55.596;13.014;2022-12-20T05:22:11;10.67;;;5.20;;
75766;SDS011;64378;55.596;13.014;2022-12-20T05:24:55;9.98;;;5.38;;
75766;SDS011;64378;55.596;13.014;2022-12-20T05:27:39;10.25;;;5.47;;
75766;SDS011;64378;55.596;13.014;2022-12-20T05:30:05;10.00;;;5.30;;
75766;SDS011;64378;55.596;13.014;2022-12-20T05:32:31;10.82;;;5.30;;
75766;SDS011;64378;55.596;13.014;2022-12-20T05:34:57;10.77;;;5.40;;
75766;SDS011;64378;55.596;13.014;2022-12-20T05:37:22;11.00;;;5.53;;
75766;SDS011;64378;55.596;13.014;2022-12-20T05:39:47;9.07;;;4.97;;
75766;SDS011;64378;55.596;13.014;2022-12-20T05:42:14;9.93;;;5.03;;
75766;SDS011;64378;55.596;13.014;2022-12-20T05:44:39;12.43;;;5.30;;
75766;SDS011;64378;55.596;13.014;2022-12-20T05:47:05;10.53;;;5.47;;
75766;SDS011;64378;55.596;13.014;2022-12-20T05:49:30;11.30;;;5.70;;
75766;SDS011;64378;55.596;13.014;2022-12-20T05:51:55;11.43;;;5.47;;
75766;SDS011;64378;55.596;13.014;2022-12-20T05:54:21;11.40;;;5.40;;
75766;SDS011;64378;55.596;13.014;2022-12-20T05:56:46;10.30;;;5.40;;
75766;SDS011;64378;55.596;13.014;2022-12-20T05:59:11;10.67;;;5.33;;
75766;SDS011;64378;55.596;13.014;2022-12-20T06:01:37;11.03;;;5.57;;
75766;SDS011;64378;55.596;13.014;2022-12-20T06:04:02;10.87;;;5.70;;
75766;SDS011;64378;55.596;13.014;2022-12-20T06:06:28;10.93;;;5.77;;
75766;SDS011;64378;55.596;13.014;2022-12-20T06:08:53;11.33;;;5.73;;
75766;SDS011;64378;55.596;13.014;2022-12-20T06:11:20;11.25;;;5.70;;
75766;SDS011;64378;55.596;13.014;2022-12-20T06:13:46;10.87;;;5.70;;
75766;SDS011;64378;55.596;13.014;2022-12-20T06:16:11;11.57;;;5.37;;
75766;SDS011;64378;55.596;13.014;2022-12-20T06:18:36;11.80;;;5.82;;
75766;SDS011;64378;55.596;13.014;2022-12-20T06:21:02;15.73;;;6.15;;
75766;SDS011;64378;55.596;13.014;2022-12-20T06:23:27;11.00;;;5.77;;
75766;SDS011;64378;55.596;13.014;2022-12-20T06:25:53;10.13;;;5.50;;
75766;SDS011;64378;55.596;13.014;2022-12-20T06:28:18;12.73;;;5.83;;
75766;SDS011;64378;55.596;13.014;2022-12-20T06:30:55;14.00;;;6.07;;
75766;SDS011;64378;55.596;13.014;2022-12-20T06:33:22;12.00;;;6.30;;
75766;SDS011;64378;55.596;13.014;2022-12-20T06:35:50;12.60;;;6.20;;
75766;SDS011;64378;55.596;13.014;2022-12-20T06:38:16;12.15;;;6.00;;
75766;SDS011;64378;55.596;13.014;2022-12-20T06:40:42;12.95;;;6.32;;
75766;SDS011;64378;55.596;13.014;2022-12-20T06:43:08;13.10;;;6.45;;
75766;SDS011;64378;55.596;13.014;2022-12-20T06:45:33;12.97;;;6.53;;
75766;SDS011;64378;55.596;13.014;2022-12-20T06:47:59;12.83;;;6.27;;
75766;SDS011;64378;55.596;13.014;2022-12-20T06:50:24;12.70;;;6.60;;
75766;SDS011;64378;55.596;13.014;2022-12-20T06:52:50;12.73;;;6.35;;
75766;SDS011;64378;55.596;13.014;2022-12-20T06:55:16;13.23;;;6.20;;
75766;SDS011;64378;55.596;13.014;2022-12-20T06:57:41;12.63;;;6.63;;
75766;SDS011;64378;55.596;13.014;2022-12-20T07:00:07;13.67;;;6.33;;
75766;SDS011;64378;55.596;13.014;2022-12-20T07:02:34;13.15;;;6.20;;
75766;SDS011;64378;55.596;13.014;2022-12-20T07:05:00;13.80;;;6.60;;
75766;SDS011;64378;55.596;13.014;2022-12-20T07:07:25;12.70;;;6.30;;
75766;SDS011;64378;55.596;13.014;2022-12-20T07:09:50;13.90;;;6.17;;
75766;SDS011;64378;55.596;13.014;2022-12-20T07:12:16;13.27;;;6.70;;
75766;SDS011;64378;55.596;13.014;2022-12-20T07:14:41;13.90;;;6.63;;
75766;SDS011;64378;55.596;13.014;2022-12-20T07:17:07;13.53;;;6.40;;
75766;SDS011;64378;55.596;13.014;2022-12-20T07:19:33;14.43;;;6.57;;
75766;SDS011;64378;55.596;13.014;2022-12-20T07:22:00;13.05;;;6.30;;
75766;SDS011;64378;55.596;13.014;2022-12-20T07:24:26;12.70;;;6.50;;
75766;SDS011;64378;55.596;13.014;2022-12-20T07:26:51;13.27;;;6.32;;
75766;SDS011;64378;55.596;13.014;2022-12-20T07:29:17;13.77;;;6.13;;
75766;SDS011;64378;55.596;13.014;2022-12-20T07:31:42;12.27;;;6.30;;
75766;SDS011;64378;55.596;13.014;2022-12-20T07:34:07;13.27;;;6.10;;
75766;SDS011;64378;55.596;13.014;2022-12-20T07:36:33;15.07;;;6.40;;
75766;SDS011;64378;55.596;13.014;2022-12-20T07:38:59;11.02;;;5.80;;
75766;SDS011;64378;55.596;13.014;2022-12-20T07:41:24;13.63;;;5.77;;
75766;SDS011;64378;55.596;13.014;2022-12-20T07:43:50;13.33;;;5.43;;
75766;SDS011;64378;55.596;13.014;2022-12-20T07:46:15;12.07;;;5.70;;
75766;SDS011;64378;55.596;13.014;2022-12-20T07:48:41;12.02;;;5.15;;
75766;SDS011;64378;55.596;13.014;2022-12-20T07:51:09;12.33;;;5.70;;
75766;SDS011;64378;55.596;13.014;2022-12-20T07:53:42;11.52;;;5.82;;
75766;SDS011;64378;55.596;13.014;2022-12-20T07:56:12;12.45;;;5.35;;
75766;SDS011;64378;55.596;13.014;2022-12-20T07:58:39;10.80;;;5.23;;
75766;SDS011;64378;55.596;13.014;2022-12-20T08:01:06;11.35;;;4.90;;
75766;SDS011;64378;55.596;13.014;2022-12-20T08:03:52;11.23;;;5.07;;
75766;SDS011;64378;55.596;13.014;2022-12-20T08:06:24;10.38;;;4.60;;
75766;SDS011;64378;55.596;13.014;2022-12-20T08:08:50;10.00;;;4.90;;
75766;SDS011;64378;55.596;13.014;2022-12-20T08:11:20;10.50;;;4.78;;
75766;SDS011;64378;55.596;13.014;2022-12-20T08:13:47;13.85;;;5.57;;
75766;SDS011;64378;55.596;13.014;2022-12-20T08:16:14;12.13;;;5.03;;
75766;SDS011;64378;55.596;13.014;2022-12-20T08:18:40;12.13;;;5.37;;
75766;SDS011;64378;55.596;13.014;2022-12-20T08:21:05;13.10;;;5.57;;
75766;SDS011;64378;55.596;13.014;2022-12-20T08:23:31;14.00;;;6.10;;
75766;SDS011;64378;55.596;13.014;2022-12-20T08:25:59;16.47;;;6.40;;
75766;SDS011;64378;55.596;13.014;2022-12-20T08:28:25;15.30;;;5.97;;
75766;SDS011;64378;55.596;13.014;2022-12-20T08:30:50;15.57;;;6.03;;
75766;SDS011;64378;55.596;13.014;2022-12-20T08:33:15;14.93;;;6.40;;
75766;SDS011;64378;55.596;13.014;2022-12-20T08:35:41;14.30;;;6.10;;
75766;SDS011;64378;55.596;13.014;2022-12-20T08:38:06;16.43;;;6.47;;
75766;SDS011;64378;55.596;13.014;2022-12-20T08:40:31;15.03;;;6.17;;
75766;SDS011;64378;55.596;13.014;2022-12-20T08:42:57;15.37;;;6.10;;
75766;SDS011;64378;55.596;13.014;2022-12-20T08:45:22;13.73;;;5.80;;
75766;SDS011;64378;55.596;13.014;2022-12-20T08:47:48;14.98;;;6.07;;
75766;SDS011;64378;55.596;13.014;2022-12-20T08:50:13;12.98;;;5.55;;
75766;SDS011;64378;55.596;13.014;2022-12-20T08:52:38;12.90;;;5.87;;
75766;SDS011;64378;55.596;13.014;2022-12-20T08:55:04;12.53;;;5.60;;
75766;SDS011;64378;55.596;13.014;2022-12-20T08:57:30;12.55;;;5.50;;
75766;SDS011;64378;55.596;13.014;2022-12-20T08:59:55;12.03;;;5.23;;
75766;SDS011;64378;55.596;13.014;2022-12-20T09:02:21;11.57;;;5.37;;
75766;SDS011;64378;55.596;13.014;2022-12-20T09:04:46;11.60;;;5.37;;
75766;SDS011;64378;55.596;13.014;2022-12-20T09:07:12;12.23;;;5.38;;
75766;SDS011;64378;55.596;13.014;2022-12-20T09:09:37;11.13;;;5.07;;
75766;SDS011;64378;55.596;13.014;2022-12-20T09:12:03;11.70;;;5.20;;
75766;SDS011;64378;55.596;13.014;2022-12-20T09:14:29;12.07;;;5.50;;
75766;SDS011;64378;55.596;13.014;2022-12-20T09:16:54;11.50;;;4.97;;
75766;SDS011;64378;55.596;13.014;2022-12-20T09:19:19;12.50;;;5.13;;
75766;SDS011;64378;55.596;13.014;2022-12-20T09:21:45;10.30;;;4.47;;
75766;SDS011;64378;55.596;13.014;2022-12-20T09:24:10;10.43;;;4.97;;
75766;SDS011;64378;55.596;13.014;2022-12-20T09:26:35;9.27;;;4.20;;
75766;SDS011;64378;55.596;13.014;2022-12-20T09:29:01;10.87;;;4.43;;
75766;SDS011;64378;55.596;13.014;2022-12-20T09:31:27;9.80;;;4.53;;
75766;SDS011;64378;55.596;13.014;2022-12-20T09:33:53;11.13;;;4.90;;
75766;SDS011;64378;55.596;13.014;2022-12-20T09:36:20;10.93;;;4.50;;
75766;SDS011;64378;55.596;13.014;2022-12-20T09:38:46;10.87;;;4.57;;
75766;SDS011;64378;55.596;13.014;2022-12-20T09:41:28;10.30;;;4.35;;
75766;SDS011;64378;55.596;13.014;2022-12-20T09:43:57;11.25;;;4.72;;
75766;SDS011;64378;55.596;13.014;2022-12-20T09:46:24;12.48;;;5.40;;
75766;SDS011;64378;55.596;13.014;2022-12-20T09:48:51;16.50;;;7.40;;
75766;SDS011;64378;55.596;13.014;2022-12-20T09:56:48;23.63;;;11.25;;
75766;SDS011;64378;55.596;13.014;2022-12-20T09:59:22;26.35;;;11.68;;
75766;SDS011;64378;55.596;13.014;2022-12-20T10:01:48;29.15;;;13.73;;
75766;SDS011;64378;55.596;13.014;2022-12-20T10:04:18;35.33;;;15.63;;
75766;SDS011;64378;55.596;13.014;2022-12-20T10:25:30;42.15;;;19.27;;
75766;SDS011;64378;55.596;13.014;2022-12-20T10:27:59;42.85;;;19.45;;
75766;SDS011;64378;55.596;13.014;2022-12-20T10:30:28;45.80;;;19.80;;
75766;SDS011;64378;55.596;13.014;2022-12-20T10:32:55;42.08;;;17.27;;
75766;SDS011;64378;55.596;13.014;2022-12-20T10:35:28;47.73;;;17.83;;
75766;SDS011;64378;55.596;13.014;2022-12-20T10:38:00;41.38;;;17.08;;
75766;SDS011;64378;55.596;13.014;2022-12-20T10:43:01;38.58;;;16.42;;
75766;SDS011;64378;55.596;13.014;2022-12-20T10:45:35;39.58;;;15.27;;
75766;SDS011;64378;55.596;13.014;2022-12-20T10:48:20;36.22;;;14.90;;
75766;SDS011;64378;55.596;13.014;2022-12-20T10:50:54;32.33;;;14.43;;
75766;SDS011;64378;55.596;13.014;2022-12-20T10:56:32;36.53;;;14.37;;
75766;SDS011;64378;55.596;13.014;2022-12-20T11:01:28;33.05;;;13.60;;
75766;SDS011;64378;55.596;13.014;2022-12-20T11:04:06;32.88;;;13.07;;
75766;SDS011;64378;55.596;13.014;2022-12-20T11:07:23;34.80;;;13.60;;
75766;SDS011;64378;55.596;13.014;2022-12-20T11:09:51;26.25;;;12.38;;
75766;SDS011;64378;55.596;13.014;2022-12-20T11:12:19;28.55;;;12.15;;
75766;SDS011;64378;55.596;13.014;2022-12-20T11:14:45;30.20;;;12.30;;
75766;SDS011;64378;55.596;13.014;2022-12-20T11:34:22;24.47;;;9.77;;
75766;SDS011;64378;55.596;13.014;2022-12-20T11:45:46;21.77;;;9.23;;
75766;SDS011;64378;55.596;13.014;2022-12-20T11:48:10;21.40;;;9.13;;
75766;SDS011;64378;55.596;13.014;2022-12-20T11:50:48;21.70;;;9.67;;
75766;SDS011;64378;55.596;13.014;2022-12-20T11:54:06;20.90;;;9.10;;
75766;SDS011;64378;55.596;13.014;2022-12-20T11:56:41;20.25;;;8.70;;
75766;SDS011;64378;55.596;13.014;2022-12-20T11:59:13;18.60;;;8.82;;
75766;SDS011;64378;55.596;13.014;2022-12-20T12:01:51;18.02;;;8.50;;
75766;SDS011;64378;55.596;13.014;2022-12-20T12:04:24;22.95;;;9.10;;
75766;SDS011;64378;55.596;13.014;2022-12-20T12:06:52;18.58;;;8.20;;
75766;SDS011;64378;55.596;13.014;2022-12-20T12:09:27;17.67;;;7.90;;
75766;SDS011;64378;55.596;13.014;2022-12-20T12:11:56;18.88;;;8.32;;
75766;SDS011;64378;55.596;13.014;2022-12-20T12:14:36;18.17;;;8.17;;
75766;SDS011;64378;55.596;13.014;2022-12-20T12:17:12;17.58;;;8.27;;
75766;SDS011;64378;55.596;13.014;2022-12-20T12:19:59;16.80;;;7.88;;
75766;SDS011;64378;55.596;13.014;2022-12-20T12:22:46;17.23;;;7.88;;
75766;SDS011;64378;55.596;13.014;2022-12-20T12:25:15;16.23;;;7.65;;
75766;SDS011;64378;55.596;13.014;2022-12-20T12:27:42;15.65;;;7.57;;
75766;SDS011;64378;55.596;13.014;2022-12-20T12:30:11;17.70;;;7.27;;
75766;SDS011;64378;55.596;13.014;2022-12-20T12:32:38;16.35;;;7.20;;
75766;SDS011;64378;55.596;13.014;2022-12-20T12:35:29;15.93;;;7.60;;
75766;SDS011;64378;55.596;13.014;2022-12-20T12:46:47;15.77;;;7.00;;
75766;SDS011;64378;55.596;13.014;2022-12-20T12:49:20;14.82;;;6.68;;
75766;SDS011;64378;55.596;13.014;2022-12-20T12:51:53;14.82;;;6.60;;
75766;SDS011;64378;55.596;13.014;2022-12-20T12:54:28;15.82;;;6.82;;
75766;SDS011;64378;55.596;13.014;2022-12-20T12:57:09;14.35;;;6.90;;
75766;SDS011;64378;55.596;13.014;2022-12-20T12:59:39;14.88;;;6.75;;
75766;SDS011;64378;55.596;13.014;2022-12-20T13:07:27;12.97;;;6.07;;
75766;SDS011;64378;55.596;13.014;2022-12-20T13:09:55;15.75;;;6.03;;
75766;SDS011;64378;55.596;13.014;2022-12-20T13:13:02;12.23;;;5.67;;
75766;SDS011;64378;55.596;13.014;2022-12-20T13:20:17;11.97;;;5.63;;
75766;SDS011;64378;55.596;13.014;2022-12-20T13:33:42;11.13;;;5.30;;
75766;SDS011;64378;55.596;13.014;2022-12-20T13:41:20;10.75;;;4.80;;
75766;SDS011;64378;55.596;13.014;2022-12-20T13:49:42;10.68;;;4.85;;
75766;SDS011;64378;55.596;13.014;2022-12-20T13:52:15;13.48;;;5.32;;
75766;SDS011;64378;55.596;13.014;2022-12-20T13:54:59;11.55;;;5.10;;
75766;SDS011;64378;55.596;13.014;2022-12-20T13:57:41;11.50;;;5.07;;
75766;SDS011;64378;55.596;13.014;2022-12-20T14:00:30;10.52;;;4.72;;
75766;SDS011;64378;55.596;13.014;2022-12-20T14:02:54;10.15;;;4.70;;
75766;SDS011;64378;55.596;13.014;2022-12-20T14:05:21;10.67;;;4.80;;
75766;SDS011;64378;55.596;13.014;2022-12-20T14:08:02;11.00;;;4.80;;
75766;SDS011;64378;55.596;13.014;2022-12-20T14:10:31;11.43;;;4.78;;
75766;SDS011;64378;55.596;13.014;2022-12-20T14:12:59;10.77;;;4.70;;
75766;SDS011;64378;55.596;13.014;2022-12-20T14:15:26;10.00;;;4.40;;
75766;SDS011;64378;55.596;13.014;2022-12-20T14:18:05;9.98;;;4.28;;
75766;SDS011;64378;55.596;13.014;2022-12-20T14:20:47;9.93;;;4.45;;
75766;SDS011;64378;55.596;13.014;2022-12-20T14:23:24;9.43;;;4.50;;
75766;SDS011;64378;55.596;13.014;2022-12-20T14:25:58;9.77;;;4.68;;
75766;SDS011;64378;55.596;13.014;2022-12-20T14:28:28;10.57;;;4.80;;
75766;SDS011;64378;55.596;13.014;2022-12-20T14:30:59;8.93;;;4.10;;
75766;SDS011;64378;55.596;13.014;2022-12-20T14:33:37;9.57;;;4.33;;
75766;SDS011;64378;55.596;13.014;2022-12-20T14:36:09;9.50;;;4.30;;
75766;SDS011;64378;55.596;13.014;2022-12-20T14:38:41;9.70;;;4.18;;
75766;SDS011;64378;55.596;13.014;2022-12-20T14:44:19;9.63;;;4.10;;
75766;SDS011;64378;55.596;13.014;2022-12-20T14:46:50;9.27;;;4.40;;
75766;SDS011;64378;55.596;13.014;2022-12-20T14:52:12;11.23;;;4.47;;
75766;SDS011;64378;55.596;13.014;2022-12-20T14:54:47;9.32;;;4.55;;
75766;SDS011;64378;55.596;13.014;2022-12-20T15:02:34;8.80;;;4.30;;
75766;SDS011;64378;55.596;13.014;2022-12-20T15:05:08;9.45;;;4.15;;
75766;SDS011;64378;55.596;13.014;2022-12-20T15:07:52;9.60;;;4.20;;
75766;SDS011;64378;55.596;13.014;2022-12-20T15:10:18;8.90;;;4.33;;
75766;SDS011;64378;55.596;13.014;2022-12-20T15:12:43;9.10;;;4.40;;
75766;SDS011;64378;55.596;13.014;2022-12-20T15:15:14;9.90;;;4.10;;
75766;SDS011;64378;55.596;13.014;2022-12-20T15:17:40;8.77;;;4.40;;
75766;SDS011;64378;55.596;13.014;2022-12-20T15:20:10;8.43;;;3.95;;
75766;SDS011;64378;55.596;13.014;2022-12-20T15:22:36;8.90;;;4.20;;
75766;SDS011;64378;55.596;13.014;2022-12-20T15:25:04;8.63;;;4.10;;
75766;SDS011;64378;55.596;13.014;2022-12-20T15:27:40;8.20;;;4.07;;
75766;SDS011;64378;55.596;13.014;2022-12-20T15:30:09;8.55;;;4.10;;
75766;SDS011;64378;55.596;13.014;2022-12-20T15:32:37;8.48;;;3.70;;
75766;SDS011;64378;55.596;13.014;2022-12-20T15:35:05;8.43;;;3.72;;
75766;SDS011;64378;55.596;13.014;2022-12-20T15:37:36;8.13;;;3.75;;
75766;SDS011;64378;55.596;13.014;2022-12-20T15:40:02;8.27;;;3.80;;
75766;SDS011;64378;55.596;13.014;2022-12-20T15:42:27;9.13;;;4.05;;
75766;SDS011;64378;55.596;13.014;2022-12-20T15:44:53;8.40;;;3.60;;
75766;SDS011;64378;55.596;13.014;2022-12-20T15:47:18;8.17;;;3.73;;
75766;SDS011;64378;55.596;13.014;2022-12-20T15:49:43;7.80;;;3.60;;
75766;SDS011;64378;55.596;13.014;2022-12-20T15:52:17;8.23;;;3.90;;
75766;SDS011;64378;55.596;13.014;2022-12-20T15:54:46;8.32;;;3.60;;
75766;SDS011;64378;55.596;13.014;2022-12-20T15:57:12;7.75;;;3.38;;
75766;SDS011;64378;55.596;13.014;2022-12-20T15:59:38;8.52;;;3.72;;
75766;SDS011;64378;55.596;13.014;2022-12-20T16:04:46;8.23;;;3.67;;
75766;SDS011;64378;55.596;13.014;2022-12-20T16:07:11;8.23;;;3.80;;
75766;SDS011;64378;55.596;13.014;2022-12-20T16:09:37;9.10;;;4.00;;
75766;SDS011;64378;55.596;13.014;2022-12-20T16:12:03;8.55;;;3.60;;
75766;SDS011;64378;55.596;13.014;2022-12-20T16:14:34;7.82;;;3.35;;
75766;SDS011;64378;55.596;13.014;2022-12-20T16:17:00;7.47;;;3.33;;
75766;SDS011;64378;55.596;13.014;2022-12-20T16:19:25;6.97;;;3.17;;
75766;SDS011;64378;55.596;13.014;2022-12-20T16:21:50;7.57;;;3.42;;
75766;SDS011;64378;55.596;13.014;2022-12-20T16:24:17;8.70;;;3.55;;
75766;SDS011;64378;55.596;13.014;2022-12-20T16:26:44;7.63;;;3.60;;
75766;SDS011;64378;55.596;13.014;2022-12-20T16:29:10;7.57;;;3.50;;
75766;SDS011;64378;55.596;13.014;2022-12-20T16:31:36;7.50;;;3.40;;
75766;SDS011;64378;55.596;13.014;2022-12-20T16:34:04;8.20;;;3.47;;
75766;SDS011;64378;55.596;13.014;2022-12-20T16:36:36;7.47;;;3.50;;
75766;SDS011;64378;55.596;13.014;2022-12-20T16:39:02;7.22;;;3.35;;